Terminal Aerodrome Forecast
Issued by NWS

Home | Current Version | Previous Version | Text Only | Print | Product List | Glossary On
Versions: 1 2 3 4 5 6 7 8 9 10 11 12 13 14 15 16 17 18 19 20
000
FTUS46 KSEW 221400 AAA
TAFHQM
TAF AMD
KHQM 221441Z 2215/2312 22010KT P6SM -SHRA SCT020 OVC040
      TEMPO 2215/2218 5SM -SHRA BR BKN020 OVC040
     FM221800 18010KT P6SM -RA OVC015
     FM230200 19008KT P6SM OVC025=

USA.gov is the U.S. government's official web portal to all federal, state and local government web resources and services.